Aérodrome :
LOGIN :

S'inscrire | Disclaimer

   EN    FR    IT 

 










Légende :    VFR   VFR Marginal   IFR   IFR Intensif   IFR Très Intensif
Visi : 
Plafond : 
>= 8 km
>= 3000ft
5 à 8 km
1000 à 3000 ft
1500m à 5 km
500 à 1000 ft
800 à 1500m
200 à 500 ft
< 800m
< 200 ft
Symboles :   Orages  Brouillard  Fortes neiges  Fortes précipitations  Vent > 20 kt
SIGMETs :   Divers  Orages  Givrage  Turbulence  Onde Orograph.  Cendres Volcan.






- Altitude de l'aérodrome : 1516 ft
- Code IATA : AGB


EDMA - Augsburg

DERNIER METAR :
  • 270150Z AUTO 11003KT 080V140 7000 // FEW022/// BKN031/// BKN042/// 03/02 Q1018

METARs EXPIRÉS :
  • 270120Z AUTO 08003KT 8000 // BKN033/// OVC038/// 02/02 Q1018
  • 270050Z AUTO 17005KT 9999 // FEW021/// BKN041/// 02/01 Q1018
  • 270020Z AUTO 11003KT 9999 // BKN036/// BKN046/// OVC058/// 02/01 Q1018
  • 262350Z AUTO VRB02KT 9999 // FEW035/// BKN046/// 02/01 Q1018
  • 262320Z AUTO 12003KT 8000 // FEW039/// BKN046/// BKN092/// 01/01 Q1018

TAF TAF EDMA
Valide du 26 à 18h jusqu'au 27 à 03h UTC


261700Z 2618/2703 13004KT CAVOK
PROB30
TEMPO 2620/2703 3500 BR



MET'MAP, la Météo Aéronautique d'un coup d'oeil ! - Copyright ORBIFLY Décembre 2007 - Disclaimer

ORBIFLY MET'MAP TEAM :

Programmation & Développement : Alexandra Zaïnal
Sur une idée originale de : Baudouin d'Aumeries
Assistance à la programmation : Marc-Olivier Méhu
Soutien technique & logistique : Manuel Goepfert

Contact : metmap@orbifly.com




SOURCES & CREDITS :

   NOAA